sensor_id;sensor_type;location;lat;lon;timestamp;P1;P2;P0
73546;PMS7003;61807;48.384;-4.386;2023-08-07T00:01:44;4.00;1.50;1.00
73546;PMS7003;61807;48.384;-4.386;2023-08-07T00:04:10;3.75;2.00;1.00
73546;PMS7003;61807;48.384;-4.386;2023-08-07T00:06:35;6.25;2.00;1.00
73546;PMS7003;61807;48.384;-4.386;2023-08-07T00:09:00;3.00;2.75;1.00
73546;PMS7003;61807;48.384;-4.386;2023-08-07T00:11:26;4.50;1.00;1.00
73546;PMS7003;61807;48.384;-4.386;2023-08-07T00:13:53;2.00;2.00;1.00
73546;PMS7003;61807;48.384;-4.386;2023-08-07T00:16:18;4.75;2.00;0.25
73546;PMS7003;61807;48.384;-4.386;2023-08-07T00:18:44;2.00;2.00;1.00
73546;PMS7003;61807;48.384;-4.386;2023-08-07T00:21:09;6.75;3.00;1.00
73546;PMS7003;61807;48.384;-4.386;2023-08-07T00:23:34;4.00;1.00;0.50
73546;PMS7003;61807;48.384;-4.386;2023-08-07T00:26:00;1.75;0.25;0.00
73546;PMS7003;61807;48.384;-4.386;2023-08-07T00:28:25;4.00;1.00;0.50
73546;PMS7003;61807;48.384;-4.386;2023-08-07T00:30:50;1.25;1.25;0.25
73546;PMS7003;61807;48.384;-4.386;2023-08-07T00:33:16;4.25;1.50;1.00
73546;PMS7003;61807;48.384;-4.386;2023-08-07T00:35:41;2.50;1.00;0.00
73546;PMS7003;61807;48.384;-4.386;2023-08-07T00:38:07;2.00;2.00;1.00
73546;PMS7003;61807;48.384;-4.386;2023-08-07T00:40:38;2.00;1.00;1.00
73546;PMS7003;61807;48.384;-4.386;2023-08-07T00:43:04;3.75;2.00;1.00
73546;PMS7003;61807;48.384;-4.386;2023-08-07T00:45:32;3.25;2.75;1.00
73546;PMS7003;61807;48.384;-4.386;2023-08-07T00:48:02;3.50;1.00;1.00
73546;PMS7003;61807;48.384;-4.386;2023-08-07T00:50:28;1.25;1.00;0.00
73546;PMS7003;61807;48.384;-4.386;2023-08-07T00:52:53;6.75;3.00;1.00
73546;PMS7003;61807;48.384;-4.386;2023-08-07T00:55:19;2.50;2.00;1.00
73546;PMS7003;61807;48.384;-4.386;2023-08-07T00:57:45;1.00;1.00;0.00
73546;PMS7003;61807;48.384;-4.386;2023-08-07T01:00:11;5.75;2.75;1.00
73546;PMS7003;61807;48.384;-4.386;2023-08-07T01:02:38;6.50;1.75;0.75
73546;PMS7003;61807;48.384;-4.386;2023-08-07T01:05:03;1.00;1.00;0.75
73546;PMS7003;61807;48.384;-4.386;2023-08-07T01:07:29;1.50;1.50;1.00
73546;PMS7003;61807;48.384;-4.386;2023-08-07T01:09:54;2.25;2.25;0.50
73546;PMS7003;61807;48.384;-4.386;2023-08-07T01:12:24;2.00;2.00;1.00
73546;PMS7003;61807;48.384;-4.386;2023-08-07T01:17:23;1.50;1.00;0.00
73546;PMS7003;61807;48.384;-4.386;2023-08-07T01:19:50;5.25;1.00;0.25
73546;PMS7003;61807;48.384;-4.386;2023-08-07T01:22:17;1.00;1.00;1.00
73546;PMS7003;61807;48.384;-4.386;2023-08-07T01:24:47;2.50;0.75;0.00
73546;PMS7003;61807;48.384;-4.386;2023-08-07T01:27:36;2.25;2.00;1.00
73546;PMS7003;61807;48.384;-4.386;2023-08-07T01:35:41;4.00;2.25;1.50
73546;PMS7003;61807;48.384;-4.386;2023-08-07T01:38:09;4.50;1.50;0.50
73546;PMS7003;61807;48.384;-4.386;2023-08-07T01:40:36;2.50;1.00;1.00
73546;PMS7003;61807;48.384;-4.386;2023-08-07T01:43:03;0.00;0.00;0.00
73546;PMS7003;61807;48.384;-4.386;2023-08-07T01:45:29;2.75;1.00;1.00
73546;PMS7003;61807;48.384;-4.386;2023-08-07T01:47:55;2.25;1.25;0.50
73546;PMS7003;61807;48.384;-4.386;2023-08-07T01:50:21;2.50;1.50;1.00
73546;PMS7003;61807;48.384;-4.386;2023-08-07T01:52:47;4.25;1.75;1.00
73546;PMS7003;61807;48.384;-4.386;2023-08-07T01:55:13;3.75;2.00;1.00
73546;PMS7003;61807;48.384;-4.386;2023-08-07T01:57:39;3.00;1.50;1.00
73546;PMS7003;61807;48.384;-4.386;2023-08-07T02:00:05;1.50;1.00;1.00
73546;PMS7003;61807;48.384;-4.386;2023-08-07T02:02:31;4.00;1.00;1.00
73546;PMS7003;61807;48.384;-4.386;2023-08-07T02:04:56;3.25;0.75;0.25
73546;PMS7003;61807;48.384;-4.386;2023-08-07T02:07:22;2.50;1.00;1.00
73546;PMS7003;61807;48.384;-4.386;2023-08-07T02:09:47;2.00;1.00;0.00
73546;PMS7003;61807;48.384;-4.386;2023-08-07T02:12:12;3.00;2.00;1.00
73546;PMS7003;61807;48.384;-4.386;2023-08-07T02:14:38;1.00;1.00;0.50
73546;PMS7003;61807;48.384;-4.386;2023-08-07T02:17:03;1.00;1.00;0.75
73546;PMS7003;61807;48.384;-4.386;2023-08-07T02:19:29;3.75;1.00;1.00
73546;PMS7003;61807;48.384;-4.386;2023-08-07T02:21:55;1.75;1.75;1.00
73546;PMS7003;61807;48.384;-4.386;2023-08-07T02:24:20;1.00;0.75;0.25
73546;PMS7003;61807;48.384;-4.386;2023-08-07T02:26:46;1.25;0.00;0.00
73546;PMS7003;61807;48.384;-4.386;2023-08-07T02:29:11;1.25;1.00;0.50
73546;PMS7003;61807;48.384;-4.386;2023-08-07T02:31:37;5.00;2.00;1.00
73546;PMS7003;61807;48.384;-4.386;2023-08-07T02:34:02;1.75;1.00;1.00
73546;PMS7003;61807;48.384;-4.386;2023-08-07T02:36:27;1.00;1.00;1.00
73546;PMS7003;61807;48.384;-4.386;2023-08-07T02:38:53;1.25;1.25;1.00
73546;PMS7003;61807;48.384;-4.386;2023-08-07T02:41:18;3.00;1.00;0.75
73546;PMS7003;61807;48.384;-4.386;2023-08-07T02:43:43;1.00;1.00;0.50
73546;PMS7003;61807;48.384;-4.386;2023-08-07T02:46:09;0.00;0.00;0.00
73546;PMS7003;61807;48.384;-4.386;2023-08-07T02:48:34;2.00;2.00;1.00
73546;PMS7003;61807;48.384;-4.386;2023-08-07T02:50:59;2.00;2.00;1.25
73546;PMS7003;61807;48.384;-4.386;2023-08-07T02:53:25;5.00;3.75;2.00
73546;PMS7003;61807;48.384;-4.386;2023-08-07T02:55:50;3.25;3.00;2.00
73546;PMS7003;61807;48.384;-4.386;2023-08-07T02:58:16;4.00;4.00;2.50
73546;PMS7003;61807;48.384;-4.386;2023-08-07T03:00:41;3.00;1.25;1.00
73546;PMS7003;61807;48.384;-4.386;2023-08-07T03:03:06;1.50;1.50;1.00
73546;PMS7003;61807;48.384;-4.386;2023-08-07T03:05:32;2.25;1.00;0.50
73546;PMS7003;61807;48.384;-4.386;2023-08-07T03:07:57;2.00;2.00;1.00
73546;PMS7003;61807;48.384;-4.386;2023-08-07T03:10:22;4.25;2.00;1.00
73546;PMS7003;61807;48.384;-4.386;2023-08-07T03:12:48;1.75;1.75;1.00
73546;PMS7003;61807;48.384;-4.386;2023-08-07T03:15:13;1.00;1.00;1.00
73546;PMS7003;61807;48.384;-4.386;2023-08-07T03:17:38;2.50;1.00;1.00
73546;PMS7003;61807;48.384;-4.386;2023-08-07T03:20:04;1.25;1.25;1.00
73546;PMS7003;61807;48.384;-4.386;2023-08-07T03:22:30;2.00;2.00;2.00
73546;PMS7003;61807;48.384;-4.386;2023-08-07T03:24:55;5.50;2.00;1.00
73546;PMS7003;61807;48.384;-4.386;2023-08-07T03:27:20;1.25;1.00;0.75
73546;PMS7003;61807;48.384;-4.386;2023-08-07T03:29:46;3.25;2.00;1.50
73546;PMS7003;61807;48.384;-4.386;2023-08-07T03:32:11;1.50;1.00;0.25
73546;PMS7003;61807;48.384;-4.386;2023-08-07T03:34:37;1.00;1.00;1.00
73546;PMS7003;61807;48.384;-4.386;2023-08-07T03:37:02;1.75;1.75;1.00
73546;PMS7003;61807;48.384;-4.386;2023-08-07T03:39:28;2.75;2.00;1.00
73546;PMS7003;61807;48.384;-4.386;2023-08-07T03:41:53;3.00;2.00;1.00
73546;PMS7003;61807;48.384;-4.386;2023-08-07T03:44:19;5.00;2.25;2.00
73546;PMS7003;61807;48.384;-4.386;2023-08-07T03:46:44;2.50;1.00;1.00
73546;PMS7003;61807;48.384;-4.386;2023-08-07T03:49:09;2.00;2.00;1.00
73546;PMS7003;61807;48.384;-4.386;2023-08-07T03:51:35;1.00;1.00;1.00
73546;PMS7003;61807;48.384;-4.386;2023-08-07T03:54:00;2.00;1.75;1.00
73546;PMS7003;61807;48.384;-4.386;2023-08-07T03:56:25;1.75;0.75;0.75
73546;PMS7003;61807;48.384;-4.386;2023-08-07T03:58:51;2.75;1.00;0.00
73546;PMS7003;61807;48.384;-4.386;2023-08-07T04:01:16;2.00;1.00;0.00
73546;PMS7003;61807;48.384;-4.386;2023-08-07T04:03:42;1.25;0.75;0.00
73546;PMS7003;61807;48.384;-4.386;2023-08-07T04:06:07;2.00;1.00;1.00
73546;PMS7003;61807;48.384;-4.386;2023-08-07T04:08:33;5.75;1.00;1.00
73546;PMS7003;61807;48.384;-4.386;2023-08-07T04:10:59;1.00;1.00;1.00
73546;PMS7003;61807;48.384;-4.386;2023-08-07T04:13:28;2.00;2.00;0.75
73546;PMS7003;61807;48.384;-4.386;2023-08-07T04:15:54;1.50;0.75;0.25
73546;PMS7003;61807;48.384;-4.386;2023-08-07T04:18:20;2.50;1.00;0.50
73546;PMS7003;61807;48.384;-4.386;2023-08-07T04:20:49;2.00;2.00;1.00
73546;PMS7003;61807;48.384;-4.386;2023-08-07T04:23:15;2.00;1.00;0.00
73546;PMS7003;61807;48.384;-4.386;2023-08-07T04:25:40;1.75;0.75;0.75
73546;PMS7003;61807;48.384;-4.386;2023-08-07T04:28:06;2.00;1.00;1.00
73546;PMS7003;61807;48.384;-4.386;2023-08-07T04:30:31;3.00;1.00;0.00
73546;PMS7003;61807;48.384;-4.386;2023-08-07T04:32:56;1.25;1.00;1.00
73546;PMS7003;61807;48.384;-4.386;2023-08-07T04:35:22;1.75;0.00;0.00
73546;PMS7003;61807;48.384;-4.386;2023-08-07T04:37:47;0.75;0.75;0.75
73546;PMS7003;61807;48.384;-4.386;2023-08-07T04:40:12;3.50;1.25;0.75
73546;PMS7003;61807;48.384;-4.386;2023-08-07T04:42:38;2.25;2.00;1.00
73546;PMS7003;61807;48.384;-4.386;2023-08-07T04:45:03;1.00;1.00;0.50
73546;PMS7003;61807;48.384;-4.386;2023-08-07T04:47:29;1.75;1.00;0.00
73546;PMS7003;61807;48.384;-4.386;2023-08-07T04:49:55;2.00;1.00;1.00
73546;PMS7003;61807;48.384;-4.386;2023-08-07T04:52:20;1.75;1.50;1.00
73546;PMS7003;61807;48.384;-4.386;2023-08-07T04:54:46;2.25;1.00;1.00
73546;PMS7003;61807;48.384;-4.386;2023-08-07T04:57:11;0.00;0.00;0.00
73546;PMS7003;61807;48.384;-4.386;2023-08-07T04:59:36;2.75;1.00;1.00
73546;PMS7003;61807;48.384;-4.386;2023-08-07T05:02:02;4.00;1.00;1.00
73546;PMS7003;61807;48.384;-4.386;2023-08-07T05:04:27;1.00;1.00;0.50
73546;PMS7003;61807;48.384;-4.386;2023-08-07T05:06:52;1.00;1.00;0.75
73546;PMS7003;61807;48.384;-4.386;2023-08-07T05:09:18;2.50;0.75;0.00
73546;PMS7003;61807;48.384;-4.386;2023-08-07T05:11:43;4.75;2.00;1.00
73546;PMS7003;61807;48.384;-4.386;2023-08-07T05:14:09;2.00;0.00;0.00
73546;PMS7003;61807;48.384;-4.386;2023-08-07T05:16:35;0.00;0.00;0.00
73546;PMS7003;61807;48.384;-4.386;2023-08-07T05:19:00;3.00;1.00;0.50
73546;PMS7003;61807;48.384;-4.386;2023-08-07T05:21:25;2.25;1.00;1.00
73546;PMS7003;61807;48.384;-4.386;2023-08-07T05:23:51;2.00;2.00;1.00
73546;PMS7003;61807;48.384;-4.386;2023-08-07T05:26:20;2.25;1.00;1.00
73546;PMS7003;61807;48.384;-4.386;2023-08-07T05:28:45;1.00;1.00;0.00
73546;PMS7003;61807;48.384;-4.386;2023-08-07T05:31:11;2.00;1.00;1.00
73546;PMS7003;61807;48.384;-4.386;2023-08-07T05:33:36;3.00;1.50;1.00
73546;PMS7003;61807;48.384;-4.386;2023-08-07T05:36:02;3.00;1.75;1.00
73546;PMS7003;61807;48.384;-4.386;2023-08-07T05:38:27;2.25;2.00;1.25
73546;PMS7003;61807;48.384;-4.386;2023-08-07T05:40:52;2.00;1.00;1.00
73546;PMS7003;61807;48.384;-4.386;2023-08-07T05:43:18;1.00;1.00;0.00
73546;PMS7003;61807;48.384;-4.386;2023-08-07T05:45:43;0.75;0.75;0.75
73546;PMS7003;61807;48.384;-4.386;2023-08-07T05:48:11;3.00;0.00;0.00
73546;PMS7003;61807;48.384;-4.386;2023-08-07T05:50:36;3.00;1.00;1.00
73546;PMS7003;61807;48.384;-4.386;2023-08-07T05:53:02;4.00;1.00;1.00
73546;PMS7003;61807;48.384;-4.386;2023-08-07T05:55:28;3.25;1.25;0.50
73546;PMS7003;61807;48.384;-4.386;2023-08-07T05:57:53;1.00;0.00;0.00
73546;PMS7003;61807;48.384;-4.386;2023-08-07T06:00:18;1.00;1.00;0.75
73546;PMS7003;61807;48.384;-4.386;2023-08-07T06:02:44;3.25;1.00;0.50
73546;PMS7003;61807;48.384;-4.386;2023-08-07T06:05:10;4.00;1.00;1.00
73546;PMS7003;61807;48.384;-4.386;2023-08-07T06:07:38;1.00;1.00;1.00
73546;PMS7003;61807;48.384;-4.386;2023-08-07T06:10:04;3.75;2.00;1.50
73546;PMS7003;61807;48.384;-4.386;2023-08-07T06:12:30;2.00;1.00;1.00
73546;PMS7003;61807;48.384;-4.386;2023-08-07T06:14:55;1.50;1.00;1.00
73546;PMS7003;61807;48.384;-4.386;2023-08-07T06:17:21;1.50;1.00;1.00
73546;PMS7003;61807;48.384;-4.386;2023-08-07T06:19:46;1.00;1.00;1.00
73546;PMS7003;61807;48.384;-4.386;2023-08-07T06:22:11;2.75;0.00;0.00
73546;PMS7003;61807;48.384;-4.386;2023-08-07T06:24:37;2.50;1.00;1.00
73546;PMS7003;61807;48.384;-4.386;2023-08-07T06:27:02;4.25;3.00;2.00
73546;PMS7003;61807;48.384;-4.386;2023-08-07T06:29:28;1.25;1.25;1.00
73546;PMS7003;61807;48.384;-4.386;2023-08-07T06:31:53;1.50;1.50;1.00
73546;PMS7003;61807;48.384;-4.386;2023-08-07T06:34:19;2.00;1.00;0.75
73546;PMS7003;61807;48.384;-4.386;2023-08-07T06:36:44;3.25;2.25;1.50
73546;PMS7003;61807;48.384;-4.386;2023-08-07T06:39:10;4.00;1.00;1.00
73546;PMS7003;61807;48.384;-4.386;2023-08-07T06:41:35;2.00;1.00;1.00
73546;PMS7003;61807;48.384;-4.386;2023-08-07T06:44:01;2.00;1.00;0.00
73546;PMS7003;61807;48.384;-4.386;2023-08-07T06:46:26;24.75;11.00;3.50
73546;PMS7003;61807;48.384;-4.386;2023-08-07T06:48:53;1.00;1.00;0.25
73546;PMS7003;61807;48.384;-4.386;2023-08-07T06:51:18;4.50;3.00;2.25
73546;PMS7003;61807;48.384;-4.386;2023-08-07T06:53:44;3.25;1.00;1.00
73546;PMS7003;61807;48.384;-4.386;2023-08-07T06:56:09;12.50;2.75;1.00
73546;PMS7003;61807;48.384;-4.386;2023-08-07T06:58:34;3.75;1.00;1.00
73546;PMS7003;61807;48.384;-4.386;2023-08-07T07:01:00;1.25;1.25;1.00
73546;PMS7003;61807;48.384;-4.386;2023-08-07T07:03:26;1.50;1.50;1.00
73546;PMS7003;61807;48.384;-4.386;2023-08-07T07:05:51;1.25;1.25;1.00
73546;PMS7003;61807;48.384;-4.386;2023-08-07T07:08:17;5.00;1.25;1.00
73546;PMS7003;61807;48.384;-4.386;2023-08-07T07:10:42;1.00;1.00;1.00
73546;PMS7003;61807;48.384;-4.386;2023-08-07T07:13:07;3.50;1.50;1.00
73546;PMS7003;61807;48.384;-4.386;2023-08-07T07:15:34;5.75;3.00;1.75
73546;PMS7003;61807;48.384;-4.386;2023-08-07T07:18:00;9.50;4.50;2.50
73546;PMS7003;61807;48.384;-4.386;2023-08-07T07:20:26;11.25;7.75;3.75
73546;PMS7003;61807;48.384;-4.386;2023-08-07T07:22:52;7.25;4.50;2.75
73546;PMS7003;61807;48.384;-4.386;2023-08-07T07:25:17;8.75;4.25;2.50
73546;PMS7003;61807;48.384;-4.386;2023-08-07T07:27:43;3.75;3.50;2.50
73546;PMS7003;61807;48.384;-4.386;2023-08-07T07:30:08;3.25;2.00;2.00
73546;PMS7003;61807;48.384;-4.386;2023-08-07T07:32:34;8.00;4.00;3.00
73546;PMS7003;61807;48.384;-4.386;2023-08-07T07:35:00;26.25;15.25;7.50
73546;PMS7003;61807;48.384;-4.386;2023-08-07T07:37:25;48.25;26.50;9.75
73546;PMS7003;61807;48.384;-4.386;2023-08-07T07:39:51;33.75;14.50;6.75
73546;PMS7003;61807;48.384;-4.386;2023-08-07T07:42:16;7.50;3.75;2.00
73546;PMS7003;61807;48.384;-4.386;2023-08-07T07:44:41;19.50;6.00;3.50
73546;PMS7003;61807;48.384;-4.386;2023-08-07T07:47:07;64.50;35.75;13.25
73546;PMS7003;61807;48.384;-4.386;2023-08-07T07:49:33;51.00;27.25;11.00
73546;PMS7003;61807;48.384;-4.386;2023-08-07T07:51:59;4.75;3.00;2.00
73546;PMS7003;61807;48.384;-4.386;2023-08-07T07:54:24;11.00;5.75;2.00
73546;PMS7003;61807;48.384;-4.386;2023-08-07T07:56:50;5.00;2.50;2.00
73546;PMS7003;61807;48.384;-4.386;2023-08-07T07:59:15;5.25;3.25;1.50
73546;PMS7003;61807;48.384;-4.386;2023-08-07T08:01:41;5.00;2.50;1.00
73546;PMS7003;61807;48.384;-4.386;2023-08-07T08:04:06;4.75;2.00;2.00
73546;PMS7003;61807;48.384;-4.386;2023-08-07T08:06:32;4.00;2.50;1.00
73546;PMS7003;61807;48.384;-4.386;2023-08-07T08:08:57;3.00;1.00;1.00
73546;PMS7003;61807;48.384;-4.386;2023-08-07T08:11:24;3.00;1.50;1.00
73546;PMS7003;61807;48.384;-4.386;2023-08-07T08:13:49;1.00;0.00;0.00
73546;PMS7003;61807;48.384;-4.386;2023-08-07T08:16:15;2.50;1.25;1.00
73546;PMS7003;61807;48.384;-4.386;2023-08-07T08:18:40;1.50;1.00;0.50
73546;PMS7003;61807;48.384;-4.386;2023-08-07T08:21:06;1.25;1.25;1.00
73546;PMS7003;61807;48.384;-4.386;2023-08-07T08:23:31;1.00;1.00;1.00
73546;PMS7003;61807;48.384;-4.386;2023-08-07T08:25:57;1.00;0.50;0.00
73546;PMS7003;61807;48.384;-4.386;2023-08-07T08:28:22;2.50;1.00;0.00
73546;PMS7003;61807;48.384;-4.386;2023-08-07T08:30:48;1.00;0.50;0.25
73546;PMS7003;61807;48.384;-4.386;2023-08-07T08:33:13;3.00;2.00;1.00
73546;PMS7003;61807;48.384;-4.386;2023-08-07T08:35:39;1.00;1.00;0.25
73546;PMS7003;61807;48.384;-4.386;2023-08-07T08:38:05;2.75;1.75;1.00
73546;PMS7003;61807;48.384;-4.386;2023-08-07T08:40:30;6.00;4.00;3.00
73546;PMS7003;61807;48.384;-4.386;2023-08-07T08:42:57;3.00;1.00;1.00
73546;PMS7003;61807;48.384;-4.386;2023-08-07T08:45:26;12.00;8.25;4.00
73546;PMS7003;61807;48.384;-4.386;2023-08-07T08:47:52;25.25;15.25;6.00
73546;PMS7003;61807;48.384;-4.386;2023-08-07T08:50:23;26.25;15.25;5.75
73546;PMS7003;61807;48.384;-4.386;2023-08-07T08:52:49;3.25;1.50;0.50
73546;PMS7003;61807;48.384;-4.386;2023-08-07T08:55:16;2.25;0.50;0.50
73546;PMS7003;61807;48.384;-4.386;2023-08-07T08:57:44;1.00;0.75;0.00
73546;PMS7003;61807;48.384;-4.386;2023-08-07T09:00:10;1.00;0.00;0.00
73546;PMS7003;61807;48.384;-4.386;2023-08-07T09:02:46;0.00;0.00;0.00
73546;PMS7003;61807;48.384;-4.386;2023-08-07T09:05:16;1.75;1.00;0.25
73546;PMS7003;61807;48.384;-4.386;2023-08-07T09:07:45;0.00;0.00;0.00
73546;PMS7003;61807;48.384;-4.386;2023-08-07T09:10:12;2.00;2.00;1.25
73546;PMS7003;61807;48.384;-4.386;2023-08-07T09:12:53;0.25;0.00;0.00
73546;PMS7003;61807;48.384;-4.386;2023-08-07T09:15:25;10.50;7.00;2.75
73546;PMS7003;61807;48.384;-4.386;2023-08-07T09:17:53;1.00;1.00;0.25
73546;PMS7003;61807;48.384;-4.386;2023-08-07T09:20:20;0.50;0.50;0.00
73546;PMS7003;61807;48.384;-4.386;2023-08-07T09:22:47;5.00;2.00;1.00
73546;PMS7003;61807;48.384;-4.386;2023-08-07T09:25:13;1.25;1.25;1.00
73546;PMS7003;61807;48.384;-4.386;2023-08-07T09:27:39;1.00;1.00;1.00
73546;PMS7003;61807;48.384;-4.386;2023-08-07T09:30:06;1.25;0.00;0.00
73546;PMS7003;61807;48.384;-4.386;2023-08-07T09:32:35;2.25;0.75;0.00
73546;PMS7003;61807;48.384;-4.386;2023-08-07T09:35:02;2.75;0.50;0.50
73546;PMS7003;61807;48.384;-4.386;2023-08-07T09:37:29;0.75;0.50;0.00
73546;PMS7003;61807;48.384;-4.386;2023-08-07T09:39:55;0.75;0.00;0.00
73546;PMS7003;61807;48.384;-4.386;2023-08-07T09:42:20;1.00;1.00;0.75
73546;PMS7003;61807;48.384;-4.386;2023-08-07T09:44:46;2.25;1.75;1.00
73546;PMS7003;61807;48.384;-4.386;2023-08-07T09:47:14;2.75;1.00;0.75
73546;PMS7003;61807;48.384;-4.386;2023-08-07T09:49:40;3.25;2.00;1.25
73546;PMS7003;61807;48.384;-4.386;2023-08-07T09:52:07;0.75;0.75;0.75
73546;PMS7003;61807;48.384;-4.386;2023-08-07T09:54:34;0.00;0.00;0.00
73546;PMS7003;61807;48.384;-4.386;2023-08-07T09:57:00;1.00;1.00;0.00
73546;PMS7003;61807;48.384;-4.386;2023-08-07T09:59:27;0.00;0.00;0.00
73546;PMS7003;61807;48.384;-4.386;2023-08-07T10:01:53;4.75;1.00;1.00
73546;PMS7003;61807;48.384;-4.386;2023-08-07T10:04:20;1.25;1.25;1.00
73546;PMS7003;61807;48.384;-4.386;2023-08-07T10:06:46;1.00;0.00;0.00
73546;PMS7003;61807;48.384;-4.386;2023-08-07T10:09:13;2.00;0.00;0.00
73546;PMS7003;61807;48.384;-4.386;2023-08-07T10:11:38;0.00;0.00;0.00
73546;PMS7003;61807;48.384;-4.386;2023-08-07T10:14:05;0.00;0.00;0.00
73546;PMS7003;61807;48.384;-4.386;2023-08-07T10:16:30;0.00;0.00;0.00
73546;PMS7003;61807;48.384;-4.386;2023-08-07T10:18:57;1.00;0.00;0.00
73546;PMS7003;61807;48.384;-4.386;2023-08-07T10:21:24;4.25;3.50;2.00
73546;PMS7003;61807;48.384;-4.386;2023-08-07T10:23:51;3.25;0.25;0.25
73546;PMS7003;61807;48.384;-4.386;2023-08-07T10:26:19;2.50;0.75;0.50
73546;PMS7003;61807;48.384;-4.386;2023-08-07T10:28:46;2.25;1.00;1.00
73546;PMS7003;61807;48.384;-4.386;2023-08-07T10:31:16;1.00;1.00;0.50
73546;PMS7003;61807;48.384;-4.386;2023-08-07T10:33:43;2.50;0.00;0.00
73546;PMS7003;61807;48.384;-4.386;2023-08-07T10:36:09;3.00;2.00;1.25
73546;PMS7003;61807;48.384;-4.386;2023-08-07T10:38:35;1.50;0.00;0.00
73546;PMS7003;61807;48.384;-4.386;2023-08-07T10:41:13;0.00;0.00;0.00
73546;PMS7003;61807;48.384;-4.386;2023-08-07T10:43:40;0.25;0.25;0.00
73546;PMS7003;61807;48.384;-4.386;2023-08-07T10:48:56;0.00;0.00;0.00
73546;PMS7003;61807;48.384;-4.386;2023-08-07T10:51:27;0.00;0.00;0.00
73546;PMS7003;61807;48.384;-4.386;2023-08-07T10:53:56;1.75;0.00;0.00
73546;PMS7003;61807;48.384;-4.386;2023-08-07T10:56:31;2.00;0.00;0.00
73546;PMS7003;61807;48.384;-4.386;2023-08-07T10:59:07;0.00;0.00;0.00
73546;PMS7003;61807;48.384;-4.386;2023-08-07T11:04:08;0.50;0.50;0.00
73546;PMS7003;61807;48.384;-4.386;2023-08-07T11:06:38;1.00;0.25;0.00
73546;PMS7003;61807;48.384;-4.386;2023-08-07T11:09:06;1.00;0.00;0.00
73546;PMS7003;61807;48.384;-4.386;2023-08-07T11:11:36;0.00;0.00;0.00
73546;PMS7003;61807;48.384;-4.386;2023-08-07T11:14:16;1.00;0.00;0.00
73546;PMS7003;61807;48.384;-4.386;2023-08-07T11:16:43;1.25;0.00;0.00
73546;PMS7003;61807;48.384;-4.386;2023-08-07T11:19:09;0.00;0.00;0.00
73546;PMS7003;61807;48.384;-4.386;2023-08-07T11:21:36;2.00;0.00;0.00
73546;PMS7003;61807;48.384;-4.386;2023-08-07T11:24:02;1.50;0.00;0.00
73546;PMS7003;61807;48.384;-4.386;2023-08-07T11:26:28;0.00;0.00;0.00
73546;PMS7003;61807;48.384;-4.386;2023-08-07T11:28:53;1.00;0.00;0.00
73546;PMS7003;61807;48.384;-4.386;2023-08-07T11:31:19;0.00;0.00;0.00
73546;PMS7003;61807;48.384;-4.386;2023-08-07T11:33:46;0.00;0.00;0.00
73546;PMS7003;61807;48.384;-4.386;2023-08-07T11:36:14;1.75;0.00;0.00
73546;PMS7003;61807;48.384;-4.386;2023-08-07T11:38:41;2.00;0.00;0.00
73546;PMS7003;61807;48.384;-4.386;2023-08-07T11:41:14;0.75;0.75;0.00
73546;PMS7003;61807;48.384;-4.386;2023-08-07T11:43:41;0.00;0.00;0.00
73546;PMS7003;61807;48.384;-4.386;2023-08-07T11:46:08;2.00;0.00;0.00
73546;PMS7003;61807;48.384;-4.386;2023-08-07T11:48:36;0.00;0.00;0.00
73546;PMS7003;61807;48.384;-4.386;2023-08-07T11:51:03;1.75;0.00;0.00
73546;PMS7003;61807;48.384;-4.386;2023-08-07T11:53:33;2.50;0.00;0.00
73546;PMS7003;61807;48.384;-4.386;2023-08-07T11:56:10;0.50;0.00;0.00
73546;PMS7003;61807;48.384;-4.386;2023-08-07T11:58:40;0.25;0.00;0.00
73546;PMS7003;61807;48.384;-4.386;2023-08-07T12:01:10;1.00;0.00;0.00
73546;PMS7003;61807;48.384;-4.386;2023-08-07T12:03:38;1.25;0.00;0.00
73546;PMS7003;61807;48.384;-4.386;2023-08-07T12:06:15;0.00;0.00;0.00
73546;PMS7003;61807;48.384;-4.386;2023-08-07T12:08:41;0.00;0.00;0.00
73546;PMS7003;61807;48.384;-4.386;2023-08-07T12:11:13;0.00;0.00;0.00
73546;PMS7003;61807;48.384;-4.386;2023-08-07T12:13:40;2.00;0.00;0.00
73546;PMS7003;61807;48.384;-4.386;2023-08-07T12:16:07;3.50;0.00;0.00
73546;PMS7003;61807;48.384;-4.386;2023-08-07T12:18:33;0.00;0.00;0.00
73546;PMS7003;61807;48.384;-4.386;2023-08-07T12:21:01;1.50;0.00;0.00
73546;PMS7003;61807;48.384;-4.386;2023-08-07T12:23:34;0.50;0.00;0.00
73546;PMS7003;61807;48.384;-4.386;2023-08-07T12:26:01;0.00;0.00;0.00
73546;PMS7003;61807;48.384;-4.386;2023-08-07T12:28:27;0.50;0.00;0.00
73546;PMS7003;61807;48.384;-4.386;2023-08-07T12:30:53;0.00;0.00;0.00
73546;PMS7003;61807;48.384;-4.386;2023-08-07T12:33:18;0.00;0.00;0.00
73546;PMS7003;61807;48.384;-4.386;2023-08-07T12:35:44;0.00;0.00;0.00
73546;PMS7003;61807;48.384;-4.386;2023-08-07T12:38:10;2.00;0.25;0.00
73546;PMS7003;61807;48.384;-4.386;2023-08-07T12:40:36;0.00;0.00;0.00
73546;PMS7003;61807;48.384;-4.386;2023-08-07T12:43:02;0.00;0.00;0.00
73546;PMS7003;61807;48.384;-4.386;2023-08-07T12:45:31;2.00;0.00;0.00
73546;PMS7003;61807;48.384;-4.386;2023-08-07T12:47:57;0.00;0.00;0.00
73546;PMS7003;61807;48.384;-4.386;2023-08-07T12:50:23;0.50;0.00;0.00
73546;PMS7003;61807;48.384;-4.386;2023-08-07T12:52:49;0.00;0.00;0.00
73546;PMS7003;61807;48.384;-4.386;2023-08-07T12:55:14;0.00;0.00;0.00
73546;PMS7003;61807;48.384;-4.386;2023-08-07T12:57:41;0.00;0.00;0.00
73546;PMS7003;61807;48.384;-4.386;2023-08-07T13:00:10;0.00;0.00;0.00
73546;PMS7003;61807;48.384;-4.386;2023-08-07T13:02:42;0.00;0.00;0.00
73546;PMS7003;61807;48.384;-4.386;2023-08-07T13:05:09;0.00;0.00;0.00
73546;PMS7003;61807;48.384;-4.386;2023-08-07T13:07:35;0.00;0.00;0.00
73546;PMS7003;61807;48.384;-4.386;2023-08-07T13:10:01;1.00;0.00;0.00
73546;PMS7003;61807;48.384;-4.386;2023-08-07T13:12:27;0.00;0.00;0.00
73546;PMS7003;61807;48.384;-4.386;2023-08-07T13:14:52;0.00;0.00;0.00
73546;PMS7003;61807;48.384;-4.386;2023-08-07T13:17:18;0.00;0.00;0.00
73546;PMS7003;61807;48.384;-4.386;2023-08-07T13:19:43;0.75;0.00;0.00
73546;PMS7003;61807;48.384;-4.386;2023-08-07T13:22:08;0.00;0.00;0.00
73546;PMS7003;61807;48.384;-4.386;2023-08-07T13:24:34;0.00;0.00;0.00
73546;PMS7003;61807;48.384;-4.386;2023-08-07T13:27:00;0.50;0.00;0.00
73546;PMS7003;61807;48.384;-4.386;2023-08-07T13:29:25;1.50;0.00;0.00
73546;PMS7003;61807;48.384;-4.386;2023-08-07T13:31:54;0.00;0.00;0.00
73546;PMS7003;61807;48.384;-4.386;2023-08-07T13:34:20;0.00;0.00;0.00
73546;PMS7003;61807;48.384;-4.386;2023-08-07T13:36:45;0.50;0.00;0.00
73546;PMS7003;61807;48.384;-4.386;2023-08-07T13:39:10;0.25;0.00;0.00
73546;PMS7003;61807;48.384;-4.386;2023-08-07T13:41:36;0.00;0.00;0.00
73546;PMS7003;61807;48.384;-4.386;2023-08-07T13:44:01;1.00;0.00;0.00
73546;PMS7003;61807;48.384;-4.386;2023-08-07T13:46:27;0.00;0.00;0.00
73546;PMS7003;61807;48.384;-4.386;2023-08-07T13:48:53;0.00;0.00;0.00
73546;PMS7003;61807;48.384;-4.386;2023-08-07T13:51:18;1.25;0.00;0.00
73546;PMS7003;61807;48.384;-4.386;2023-08-07T13:53:44;6.00;0.00;0.00
73546;PMS7003;61807;48.384;-4.386;2023-08-07T13:56:09;0.00;0.00;0.00
73546;PMS7003;61807;48.384;-4.386;2023-08-07T13:58:37;1.50;0.00;0.00
73546;PMS7003;61807;48.384;-4.386;2023-08-07T14:01:03;0.00;0.00;0.00
73546;PMS7003;61807;48.384;-4.386;2023-08-07T14:03:29;2.00;0.00;0.00
73546;PMS7003;61807;48.384;-4.386;2023-08-07T14:05:55;0.00;0.00;0.00
73546;PMS7003;61807;48.384;-4.386;2023-08-07T14:08:20;0.25;0.00;0.00
73546;PMS7003;61807;48.384;-4.386;2023-08-07T14:10:46;1.00;0.00;0.00
73546;PMS7003;61807;48.384;-4.386;2023-08-07T14:13:11;0.00;0.00;0.00
73546;PMS7003;61807;48.384;-4.386;2023-08-07T14:15:36;0.00;0.00;0.00
73546;PMS7003;61807;48.384;-4.386;2023-08-07T14:18:02;0.00;0.00;0.00